sensor_id;sensor_type;location;lat;lon;timestamp;P1;durP1;ratioP1;P2;durP2;ratioP2
15913;SDS011;8055;51.930;8.840;2022-09-16T00:00:20;4.55;;;1.17;;
15913;SDS011;8055;51.930;8.840;2022-09-16T00:02:46;6.25;;;1.23;;
15913;SDS011;8055;51.930;8.840;2022-09-16T00:05:12;3.25;;;1.20;;
15913;SDS011;8055;51.930;8.840;2022-09-16T00:07:37;2.38;;;1.20;;
15913;SDS011;8055;51.930;8.840;2022-09-16T00:10:03;5.07;;;1.00;;
15913;SDS011;8055;51.930;8.840;2022-09-16T00:12:30;5.35;;;1.40;;
15913;SDS011;8055;51.930;8.840;2022-09-16T00:14:56;5.50;;;1.50;;
15913;SDS011;8055;51.930;8.840;2022-09-16T00:17:21;3.88;;;1.00;;
15913;SDS011;8055;51.930;8.840;2022-09-16T00:19:47;4.90;;;1.30;;
15913;SDS011;8055;51.930;8.840;2022-09-16T00:22:13;3.42;;;1.05;;
15913;SDS011;8055;51.930;8.840;2022-09-16T00:24:39;2.63;;;1.15;;
15913;SDS011;8055;51.930;8.840;2022-09-16T00:27:04;4.13;;;1.35;;
15913;SDS011;8055;51.930;8.840;2022-09-16T00:29:29;4.50;;;1.33;;
15913;SDS011;8055;51.930;8.840;2022-09-16T00:31:55;4.20;;;1.55;;
15913;SDS011;8055;51.930;8.840;2022-09-16T00:34:20;2.45;;;1.10;;
15913;SDS011;8055;51.930;8.840;2022-09-16T00:36:46;3.45;;;1.25;;
15913;SDS011;8055;51.930;8.840;2022-09-16T00:39:11;4.43;;;1.20;;
15913;SDS011;8055;51.930;8.840;2022-09-16T00:41:37;1.95;;;1.10;;
15913;SDS011;8055;51.930;8.840;2022-09-16T00:44:03;3.47;;;1.38;;
15913;SDS011;8055;51.930;8.840;2022-09-16T00:46:33;5.05;;;1.38;;
15913;SDS011;8055;51.930;8.840;2022-09-16T00:49:16;8.40;;;1.60;;
15913;SDS011;8055;51.930;8.840;2022-09-16T00:51:45;3.22;;;1.38;;
15913;SDS011;8055;51.930;8.840;2022-09-16T00:54:13;4.40;;;1.25;;
15913;SDS011;8055;51.930;8.840;2022-09-16T00:56:41;4.15;;;1.42;;
15913;SDS011;8055;51.930;8.840;2022-09-16T00:59:14;4.07;;;1.02;;
15913;SDS011;8055;51.930;8.840;2022-09-16T01:01:44;7.85;;;1.70;;
15913;SDS011;8055;51.930;8.840;2022-09-16T01:04:15;7.43;;;1.40;;
15913;SDS011;8055;51.930;8.840;2022-09-16T01:06:45;6.68;;;1.48;;
15913;SDS011;8055;51.930;8.840;2022-09-16T01:09:11;5.07;;;1.10;;
15913;SDS011;8055;51.930;8.840;2022-09-16T01:11:37;5.25;;;1.27;;
15913;SDS011;8055;51.930;8.840;2022-09-16T01:14:02;5.47;;;1.30;;
15913;SDS011;8055;51.930;8.840;2022-09-16T01:16:56;4.32;;;1.48;;
15913;SDS011;8055;51.930;8.840;2022-09-16T01:36:51;3.78;;;1.33;;
15913;SDS011;8055;51.930;8.840;2022-09-16T01:44:56;4.00;;;1.30;;
15913;SDS011;8055;51.930;8.840;2022-09-16T01:52:55;2.83;;;1.00;;
15913;SDS011;8055;51.930;8.840;2022-09-16T01:55:27;4.85;;;1.30;;
15913;SDS011;8055;51.930;8.840;2022-09-16T02:00:39;6.70;;;1.25;;
15913;SDS011;8055;51.930;8.840;2022-09-16T02:03:28;7.03;;;1.42;;
15913;SDS011;8055;51.930;8.840;2022-09-16T02:05:56;2.22;;;0.98;;
15913;SDS011;8055;51.930;8.840;2022-09-16T02:08:26;3.78;;;1.25;;
15913;SDS011;8055;51.930;8.840;2022-09-16T02:10:57;4.35;;;1.48;;
15913;SDS011;8055;51.930;8.840;2022-09-16T02:13:35;3.45;;;1.50;;
15913;SDS011;8055;51.930;8.840;2022-09-16T02:16:09;7.00;;;1.40;;
15913;SDS011;8055;51.930;8.840;2022-09-16T02:18:40;2.60;;;1.00;;
15913;SDS011;8055;51.930;8.840;2022-09-16T02:21:09;3.55;;;1.27;;
15913;SDS011;8055;51.930;8.840;2022-09-16T02:23:47;5.05;;;1.58;;
15913;SDS011;8055;51.930;8.840;2022-09-16T02:26:16;6.45;;;1.30;;
15913;SDS011;8055;51.930;8.840;2022-09-16T02:28:45;6.22;;;1.52;;
15913;SDS011;8055;51.930;8.840;2022-09-16T02:31:12;5.93;;;1.70;;
15913;SDS011;8055;51.930;8.840;2022-09-16T02:33:41;4.35;;;1.38;;
15913;SDS011;8055;51.930;8.840;2022-09-16T02:36:15;3.88;;;1.75;;
15913;SDS011;8055;51.930;8.840;2022-09-16T02:38:50;2.40;;;1.20;;
15913;SDS011;8055;51.930;8.840;2022-09-16T02:41:29;4.40;;;1.70;;
15913;SDS011;8055;51.930;8.840;2022-09-16T02:43:55;3.20;;;1.40;;
15913;SDS011;8055;51.930;8.840;2022-09-16T02:48:57;4.40;;;1.13;;
15913;SDS011;8055;51.930;8.840;2022-09-16T02:56:31;2.80;;;1.05;;
15913;SDS011;8055;51.930;8.840;2022-09-16T02:59:02;4.55;;;1.35;;
15913;SDS011;8055;51.930;8.840;2022-09-16T03:01:30;4.18;;;1.25;;
15913;SDS011;8055;51.930;8.840;2022-09-16T03:03:59;3.28;;;1.58;;
15913;SDS011;8055;51.930;8.840;2022-09-16T03:06:25;6.03;;;1.92;;
15913;SDS011;8055;51.930;8.840;2022-09-16T03:08:54;4.20;;;1.73;;
15913;SDS011;8055;51.930;8.840;2022-09-16T03:22:22;4.28;;;2.08;;
15913;SDS011;8055;51.930;8.840;2022-09-16T03:27:44;3.80;;;2.00;;
15913;SDS011;8055;51.930;8.840;2022-09-16T03:30:15;7.22;;;2.00;;
15913;SDS011;8055;51.930;8.840;2022-09-16T03:32:46;6.90;;;2.40;;
15913;SDS011;8055;51.930;8.840;2022-09-16T03:35:32;6.65;;;2.40;;
15913;SDS011;8055;51.930;8.840;2022-09-16T03:38:04;6.07;;;2.15;;
15913;SDS011;8055;51.930;8.840;2022-09-16T03:40:31;4.95;;;2.38;;
15913;SDS011;8055;51.930;8.840;2022-09-16T03:42:58;4.60;;;2.38;;
15913;SDS011;8055;51.930;8.840;2022-09-16T03:45:23;5.13;;;2.45;;
15913;SDS011;8055;51.930;8.840;2022-09-16T03:47:49;5.50;;;2.60;;
15913;SDS011;8055;51.930;8.840;2022-09-16T03:50:17;5.32;;;2.65;;
15913;SDS011;8055;51.930;8.840;2022-09-16T03:52:44;6.25;;;2.22;;
15913;SDS011;8055;51.930;8.840;2022-09-16T03:55:09;7.07;;;2.58;;
15913;SDS011;8055;51.930;8.840;2022-09-16T03:57:35;3.50;;;2.33;;
15913;SDS011;8055;51.930;8.840;2022-09-16T04:00:01;6.10;;;2.60;;
15913;SDS011;8055;51.930;8.840;2022-09-16T04:02:28;8.55;;;2.70;;
15913;SDS011;8055;51.930;8.840;2022-09-16T04:04:53;7.30;;;2.78;;
15913;SDS011;8055;51.930;8.840;2022-09-16T04:07:19;5.63;;;2.10;;
15913;SDS011;8055;51.930;8.840;2022-09-16T04:09:44;7.55;;;2.13;;
15913;SDS011;8055;51.930;8.840;2022-09-16T04:12:10;4.00;;;2.08;;
15913;SDS011;8055;51.930;8.840;2022-09-16T04:14:35;6.82;;;1.90;;
15913;SDS011;8055;51.930;8.840;2022-09-16T04:17:01;7.97;;;2.10;;
15913;SDS011;8055;51.930;8.840;2022-09-16T04:19:26;5.45;;;1.92;;
15913;SDS011;8055;51.930;8.840;2022-09-16T04:21:52;6.22;;;2.10;;
15913;SDS011;8055;51.930;8.840;2022-09-16T04:24:17;3.28;;;1.90;;
15913;SDS011;8055;51.930;8.840;2022-09-16T04:26:43;4.93;;;1.75;;
15913;SDS011;8055;51.930;8.840;2022-09-16T04:29:09;5.35;;;2.13;;
15913;SDS011;8055;51.930;8.840;2022-09-16T04:31:34;6.65;;;2.10;;
15913;SDS011;8055;51.930;8.840;2022-09-16T04:34:00;5.10;;;1.92;;
15913;SDS011;8055;51.930;8.840;2022-09-16T04:36:26;3.08;;;1.98;;
15913;SDS011;8055;51.930;8.840;2022-09-16T04:38:51;4.38;;;1.83;;
15913;SDS011;8055;51.930;8.840;2022-09-16T04:41:18;5.65;;;1.75;;
15913;SDS011;8055;51.930;8.840;2022-09-16T04:43:45;6.85;;;1.80;;
15913;SDS011;8055;51.930;8.840;2022-09-16T04:46:14;5.20;;;2.40;;
15913;SDS011;8055;51.930;8.840;2022-09-16T04:48:39;6.68;;;2.35;;
15913;SDS011;8055;51.930;8.840;2022-09-16T04:51:06;5.30;;;2.15;;
15913;SDS011;8055;51.930;8.840;2022-09-16T04:53:36;4.05;;;2.30;;
15913;SDS011;8055;51.930;8.840;2022-09-16T04:56:03;6.13;;;2.33;;
15913;SDS011;8055;51.930;8.840;2022-09-16T04:58:32;6.85;;;2.45;;
15913;SDS011;8055;51.930;8.840;2022-09-16T05:01:07;5.78;;;2.15;;
15913;SDS011;8055;51.930;8.840;2022-09-16T05:03:40;6.03;;;2.20;;
15913;SDS011;8055;51.930;8.840;2022-09-16T05:06:10;5.25;;;1.92;;
15913;SDS011;8055;51.930;8.840;2022-09-16T05:08:37;5.45;;;2.42;;
15913;SDS011;8055;51.930;8.840;2022-09-16T05:11:04;5.63;;;2.30;;
15913;SDS011;8055;51.930;8.840;2022-09-16T05:13:31;4.60;;;2.40;;
15913;SDS011;8055;51.930;8.840;2022-09-16T05:16:00;7.20;;;3.35;;
15913;SDS011;8055;51.930;8.840;2022-09-16T05:18:31;5.35;;;2.60;;
15913;SDS011;8055;51.930;8.840;2022-09-16T05:20:57;8.70;;;2.88;;
15913;SDS011;8055;51.930;8.840;2022-09-16T05:23:24;5.55;;;2.80;;
15913;SDS011;8055;51.930;8.840;2022-09-16T05:25:49;6.63;;;2.85;;
15913;SDS011;8055;51.930;8.840;2022-09-16T05:28:15;6.57;;;2.75;;
15913;SDS011;8055;51.930;8.840;2022-09-16T05:30:40;6.18;;;3.40;;
15913;SDS011;8055;51.930;8.840;2022-09-16T05:33:05;4.50;;;2.53;;
15913;SDS011;8055;51.930;8.840;2022-09-16T05:35:31;7.25;;;3.10;;
15913;SDS011;8055;51.930;8.840;2022-09-16T05:37:56;6.35;;;2.95;;
15913;SDS011;8055;51.930;8.840;2022-09-16T05:40:21;5.05;;;3.25;;
15913;SDS011;8055;51.930;8.840;2022-09-16T05:42:49;5.78;;;3.35;;
15913;SDS011;8055;51.930;8.840;2022-09-16T05:45:15;5.72;;;2.95;;
15913;SDS011;8055;51.930;8.840;2022-09-16T05:47:40;6.95;;;3.05;;
15913;SDS011;8055;51.930;8.840;2022-09-16T05:50:06;5.97;;;2.97;;
15913;SDS011;8055;51.930;8.840;2022-09-16T05:52:32;8.93;;;2.90;;
15913;SDS011;8055;51.930;8.840;2022-09-16T05:54:57;8.23;;;2.95;;
15913;SDS011;8055;51.930;8.840;2022-09-16T05:57:22;5.97;;;2.70;;
15913;SDS011;8055;51.930;8.840;2022-09-16T05:59:48;6.75;;;2.50;;
15913;SDS011;8055;51.930;8.840;2022-09-16T06:02:13;6.50;;;3.15;;
15913;SDS011;8055;51.930;8.840;2022-09-16T06:04:39;8.25;;;3.25;;
15913;SDS011;8055;51.930;8.840;2022-09-16T06:07:04;7.85;;;3.33;;
15913;SDS011;8055;51.930;8.840;2022-09-16T06:09:31;5.50;;;2.80;;
15913;SDS011;8055;51.930;8.840;2022-09-16T06:11:56;10.75;;;3.30;;
15913;SDS011;8055;51.930;8.840;2022-09-16T06:14:22;10.20;;;3.22;;
15913;SDS011;8055;51.930;8.840;2022-09-16T06:16:47;8.57;;;3.33;;
15913;SDS011;8055;51.930;8.840;2022-09-16T06:19:14;6.25;;;3.30;;
15913;SDS011;8055;51.930;8.840;2022-09-16T06:21:41;10.40;;;3.97;;
15913;SDS011;8055;51.930;8.840;2022-09-16T06:24:08;9.02;;;3.25;;
15913;SDS011;8055;51.930;8.840;2022-09-16T06:26:34;6.80;;;2.55;;
15913;SDS011;8055;51.930;8.840;2022-09-16T06:29:01;9.20;;;3.10;;
15913;SDS011;8055;51.930;8.840;2022-09-16T06:31:27;6.70;;;2.90;;
15913;SDS011;8055;51.930;8.840;2022-09-16T06:33:53;8.30;;;2.80;;
15913;SDS011;8055;51.930;8.840;2022-09-16T06:38:46;8.90;;;2.72;;
15913;SDS011;8055;51.930;8.840;2022-09-16T06:41:12;4.07;;;2.20;;
15913;SDS011;8055;51.930;8.840;2022-09-16T06:43:39;7.55;;;2.65;;
15913;SDS011;8055;51.930;8.840;2022-09-16T06:46:15;4.15;;;2.95;;
15913;SDS011;8055;51.930;8.840;2022-09-16T06:48:43;7.28;;;2.78;;
15913;SDS011;8055;51.930;8.840;2022-09-16T06:51:11;7.35;;;2.60;;
15913;SDS011;8055;51.930;8.840;2022-09-16T06:53:41;6.15;;;2.45;;
15913;SDS011;8055;51.930;8.840;2022-09-16T06:56:08;3.83;;;2.10;;
15913;SDS011;8055;51.930;8.840;2022-09-16T06:58:36;4.88;;;3.03;;
15913;SDS011;8055;51.930;8.840;2022-09-16T07:01:07;7.07;;;2.65;;
15913;SDS011;8055;51.930;8.840;2022-09-16T07:03:37;10.95;;;2.88;;
15913;SDS011;8055;51.930;8.840;2022-09-16T07:06:04;11.13;;;3.05;;
15913;SDS011;8055;51.930;8.840;2022-09-16T07:08:31;6.32;;;2.60;;
15913;SDS011;8055;51.930;8.840;2022-09-16T07:13:24;6.28;;;2.33;;
15913;SDS011;8055;51.930;8.840;2022-09-16T07:15:50;6.78;;;2.28;;
15913;SDS011;8055;51.930;8.840;2022-09-16T07:18:15;6.63;;;2.28;;
15913;SDS011;8055;51.930;8.840;2022-09-16T07:20:41;5.35;;;2.25;;
15913;SDS011;8055;51.930;8.840;2022-09-16T07:23:06;5.47;;;2.40;;
15913;SDS011;8055;51.930;8.840;2022-09-16T07:25:31;5.60;;;2.10;;
15913;SDS011;8055;51.930;8.840;2022-09-16T07:27:57;7.65;;;2.47;;
15913;SDS011;8055;51.930;8.840;2022-09-16T07:30:22;8.20;;;2.05;;
15913;SDS011;8055;51.930;8.840;2022-09-16T07:32:48;6.57;;;2.10;;
15913;SDS011;8055;51.930;8.840;2022-09-16T07:35:13;4.82;;;1.88;;
15913;SDS011;8055;51.930;8.840;2022-09-16T07:37:38;3.17;;;1.95;;
15913;SDS011;8055;51.930;8.840;2022-09-16T07:40:04;7.00;;;2.35;;
15913;SDS011;8055;51.930;8.840;2022-09-16T07:42:30;7.70;;;1.70;;
15913;SDS011;8055;51.930;8.840;2022-09-16T07:44:55;5.10;;;1.63;;
15913;SDS011;8055;51.930;8.840;2022-09-16T07:47:20;7.07;;;2.00;;
15913;SDS011;8055;51.930;8.840;2022-09-16T07:49:47;7.13;;;2.15;;
15913;SDS011;8055;51.930;8.840;2022-09-16T07:52:12;8.25;;;1.80;;
15913;SDS011;8055;51.930;8.840;2022-09-16T07:54:38;5.15;;;1.88;;
15913;SDS011;8055;51.930;8.840;2022-09-16T07:57:03;5.20;;;2.30;;
15913;SDS011;8055;51.930;8.840;2022-09-16T07:59:28;6.45;;;2.00;;
15913;SDS011;8055;51.930;8.840;2022-09-16T08:01:54;4.90;;;2.03;;
15913;SDS011;8055;51.930;8.840;2022-09-16T08:04:19;7.80;;;2.17;;
15913;SDS011;8055;51.930;8.840;2022-09-16T08:06:46;3.40;;;1.73;;
15913;SDS011;8055;51.930;8.840;2022-09-16T08:09:12;3.90;;;1.60;;
15913;SDS011;8055;51.930;8.840;2022-09-16T08:11:38;6.10;;;1.42;;
15913;SDS011;8055;51.930;8.840;2022-09-16T08:14:04;5.03;;;1.25;;
15913;SDS011;8055;51.930;8.840;2022-09-16T08:16:29;3.95;;;1.10;;
15913;SDS011;8055;51.930;8.840;2022-09-16T08:18:55;5.30;;;1.23;;
15913;SDS011;8055;51.930;8.840;2022-09-16T08:21:23;4.97;;;1.52;;
15913;SDS011;8055;51.930;8.840;2022-09-16T08:23:50;4.15;;;1.38;;
15913;SDS011;8055;51.930;8.840;2022-09-16T08:26:16;3.45;;;1.42;;
15913;SDS011;8055;51.930;8.840;2022-09-16T08:28:44;6.32;;;1.55;;
15913;SDS011;8055;51.930;8.840;2022-09-16T08:31:10;2.83;;;1.20;;
15913;SDS011;8055;51.930;8.840;2022-09-16T08:33:37;4.75;;;1.27;;
15913;SDS011;8055;51.930;8.840;2022-09-16T08:36:05;5.00;;;1.30;;
15913;SDS011;8055;51.930;8.840;2022-09-16T08:38:34;4.53;;;1.30;;
15913;SDS011;8055;51.930;8.840;2022-09-16T08:46:58;2.95;;;1.02;;
15913;SDS011;8055;51.930;8.840;2022-09-16T08:49:37;6.00;;;1.17;;
15913;SDS011;8055;51.930;8.840;2022-09-16T08:52:08;3.78;;;0.93;;
15913;SDS011;8055;51.930;8.840;2022-09-16T08:54:46;4.65;;;1.00;;
15913;SDS011;8055;51.930;8.840;2022-09-16T08:57:19;6.28;;;1.25;;
15913;SDS011;8055;51.930;8.840;2022-09-16T08:59:47;3.50;;;1.00;;
15913;SDS011;8055;51.930;8.840;2022-09-16T09:02:20;6.10;;;1.30;;
15913;SDS011;8055;51.930;8.840;2022-09-16T09:04:52;4.53;;;1.50;;
15913;SDS011;8055;51.930;8.840;2022-09-16T09:10:21;5.32;;;1.20;;
15913;SDS011;8055;51.930;8.840;2022-09-16T09:12:56;7.00;;;1.30;;
15913;SDS011;8055;51.930;8.840;2022-09-16T09:43:11;7.35;;;1.13;;
15913;SDS011;8055;51.930;8.840;2022-09-16T09:45:50;7.70;;;1.40;;
15913;SDS011;8055;51.930;8.840;2022-09-16T09:48:42;4.40;;;1.05;;
15913;SDS011;8055;51.930;8.840;2022-09-16T09:53:52;5.07;;;1.20;;
15913;SDS011;8055;51.930;8.840;2022-09-16T09:56:25;6.78;;;1.30;;
15913;SDS011;8055;51.930;8.840;2022-09-16T10:02:20;4.72;;;1.05;;
15913;SDS011;8055;51.930;8.840;2022-09-16T10:04:47;5.18;;;1.08;;
15913;SDS011;8055;51.930;8.840;2022-09-16T10:07:13;5.88;;;1.30;;
15913;SDS011;8055;51.930;8.840;2022-09-16T10:09:50;4.75;;;1.25;;
15913;SDS011;8055;51.930;8.840;2022-09-16T10:12:29;7.13;;;1.10;;
15913;SDS011;8055;51.930;8.840;2022-09-16T10:14:59;7.25;;;1.40;;
15913;SDS011;8055;51.930;8.840;2022-09-16T10:17:26;4.53;;;1.08;;
15913;SDS011;8055;51.930;8.840;2022-09-16T10:22:34;5.50;;;0.88;;
15913;SDS011;8055;51.930;8.840;2022-09-16T10:25:04;4.50;;;0.95;;
15913;SDS011;8055;51.930;8.840;2022-09-16T10:28:03;6.45;;;1.00;;
15913;SDS011;8055;51.930;8.840;2022-09-16T10:30:47;6.80;;;1.10;;
15913;SDS011;8055;51.930;8.840;2022-09-16T10:35:51;5.03;;;1.10;;
15913;SDS011;8055;51.930;8.840;2022-09-16T10:38:35;9.77;;;1.38;;
15913;SDS011;8055;51.930;8.840;2022-09-16T10:41:13;5.95;;;1.20;;
15913;SDS011;8055;51.930;8.840;2022-09-16T10:43:47;4.80;;;0.90;;
15913;SDS011;8055;51.930;8.840;2022-09-16T10:46:13;6.45;;;1.50;;
15913;SDS011;8055;51.930;8.840;2022-09-16T10:48:40;8.30;;;1.02;;
15913;SDS011;8055;51.930;8.840;2022-09-16T10:51:18;6.60;;;1.23;;
15913;SDS011;8055;51.930;8.840;2022-09-16T10:53:50;4.80;;;1.23;;
15913;SDS011;8055;51.930;8.840;2022-09-16T10:56:27;8.05;;;1.65;;
15913;SDS011;8055;51.930;8.840;2022-09-16T10:59:08;7.13;;;1.30;;
15913;SDS011;8055;51.930;8.840;2022-09-16T11:21:00;7.85;;;1.70;;
15913;SDS011;8055;51.930;8.840;2022-09-16T11:26:44;6.68;;;1.40;;
15913;SDS011;8055;51.930;8.840;2022-09-16T11:37:52;13.65;;;2.33;;
15913;SDS011;8055;51.930;8.840;2022-09-16T11:40:32;17.13;;;9.38;;
15913;SDS011;8055;51.930;8.840;2022-09-16T11:57:17;9.73;;;2.03;;
15913;SDS011;8055;51.930;8.840;2022-09-16T11:59:51;10.25;;;4.03;;
15913;SDS011;8055;51.930;8.840;2022-09-16T12:05:02;3.92;;;1.65;;
15913;SDS011;8055;51.930;8.840;2022-09-16T12:07:53;5.47;;;1.35;;
15913;SDS011;8055;51.930;8.840;2022-09-16T12:10:42;5.35;;;1.00;;
15913;SDS011;8055;51.930;8.840;2022-09-16T12:13:24;9.63;;;1.30;;
15913;SDS011;8055;51.930;8.840;2022-09-16T12:15:58;6.47;;;1.13;;
15913;SDS011;8055;51.930;8.840;2022-09-16T12:18:43;6.65;;;1.45;;
15913;SDS011;8055;51.930;8.840;2022-09-16T12:21:22;8.93;;;1.33;;
15913;SDS011;8055;51.930;8.840;2022-09-16T12:23:59;5.93;;;1.90;;
15913;SDS011;8055;51.930;8.840;2022-09-16T12:26:31;4.97;;;1.08;;
15913;SDS011;8055;51.930;8.840;2022-09-16T12:32:06;9.13;;;0.90;;
15913;SDS011;8055;51.930;8.840;2022-09-16T12:34:50;3.95;;;1.23;;
15913;SDS011;8055;51.930;8.840;2022-09-16T12:37:42;5.32;;;1.20;;
15913;SDS011;8055;51.930;8.840;2022-09-16T12:40:15;4.45;;;1.05;;
15913;SDS011;8055;51.930;8.840;2022-09-16T12:42:55;6.28;;;1.67;;
15913;SDS011;8055;51.930;8.840;2022-09-16T12:51:07;4.03;;;1.10;;
15913;SDS011;8055;51.930;8.840;2022-09-16T12:56:28;4.32;;;1.00;;
15913;SDS011;8055;51.930;8.840;2022-09-16T12:59:26;3.00;;;0.73;;
15913;SDS011;8055;51.930;8.840;2022-09-16T13:04:42;4.05;;;0.73;;
15913;SDS011;8055;51.930;8.840;2022-09-16T13:07:24;2.88;;;0.95;;
15913;SDS011;8055;51.930;8.840;2022-09-16T13:12:53;2.28;;;0.70;;
15913;SDS011;8055;51.930;8.840;2022-09-16T13:15:30;3.47;;;1.23;;
15913;SDS011;8055;51.930;8.840;2022-09-16T13:18:08;2.92;;;0.82;;
15913;SDS011;8055;51.930;8.840;2022-09-16T13:20:47;4.00;;;0.95;;
15913;SDS011;8055;51.930;8.840;2022-09-16T13:23:19;4.38;;;1.20;;
15913;SDS011;8055;51.930;8.840;2022-09-16T13:25:56;3.90;;;1.00;;
15913;SDS011;8055;51.930;8.840;2022-09-16T13:31:08;3.90;;;0.88;;
15913;SDS011;8055;51.930;8.840;2022-09-16T13:33:42;3.20;;;0.90;;
15913;SDS011;8055;51.930;8.840;2022-09-16T13:38:48;2.95;;;0.85;;
15913;SDS011;8055;51.930;8.840;2022-09-16T13:47:13;5.72;;;1.25;;
15913;SDS011;8055;51.930;8.840;2022-09-16T13:49:48;4.65;;;1.10;;
15913;SDS011;8055;51.930;8.840;2022-09-16T13:52:25;6.43;;;1.25;;
15913;SDS011;8055;51.930;8.840;2022-09-16T13:54:53;3.72;;;1.08;;
15913;SDS011;8055;51.930;8.840;2022-09-16T14:02:41;2.22;;;0.80;;
15913;SDS011;8055;51.930;8.840;2022-09-16T14:10:34;4.47;;;1.27;;
15913;SDS011;8055;51.930;8.840;2022-09-16T14:13:15;6.55;;;1.60;;
15913;SDS011;8055;51.930;8.840;2022-09-16T14:15:44;4.70;;;1.50;;
15913;SDS011;8055;51.930;8.840;2022-09-16T14:18:14;3.38;;;1.02;;
15913;SDS011;8055;51.930;8.840;2022-09-16T14:20:58;9.00;;;1.58;;
15913;SDS011;8055;51.930;8.840;2022-09-16T14:23:29;7.50;;;1.60;;
15913;SDS011;8055;51.930;8.840;2022-09-16T14:25:57;7.45;;;1.65;;
15913;SDS011;8055;51.930;8.840;2022-09-16T14:28:34;5.90;;;1.48;;
15913;SDS011;8055;51.930;8.840;2022-09-16T14:31:00;3.45;;;1.00;;
15913;SDS011;8055;51.930;8.840;2022-09-16T14:33:37;4.47;;;1.30;;
15913;SDS011;8055;51.930;8.840;2022-09-16T14:38:53;7.30;;;1.42;;
15913;SDS011;8055;51.930;8.840;2022-09-16T14:41:35;5.65;;;1.38;;
15913;SDS011;8055;51.930;8.840;2022-09-16T14:49:03;3.60;;;1.33;;
15913;SDS011;8055;51.930;8.840;2022-09-16T14:51:28;3.25;;;1.40;;
15913;SDS011;8055;51.930;8.840;2022-09-16T14:53:57;6.93;;;1.45;;
15913;SDS011;8055;51.930;8.840;2022-09-16T14:56:24;4.43;;;1.10;;
15913;SDS011;8055;51.930;8.840;2022-09-16T14:58:50;8.82;;;1.60;;
15913;SDS011;8055;51.930;8.840;2022-09-16T15:01:23;4.68;;;1.15;;
15913;SDS011;8055;51.930;8.840;2022-09-16T15:03:53;6.07;;;1.60;;
15913;SDS011;8055;51.930;8.840;2022-09-16T15:06:23;6.40;;;1.60;;
15913;SDS011;8055;51.930;8.840;2022-09-16T15:08:53;5.65;;;1.38;;
15913;SDS011;8055;51.930;8.840;2022-09-16T15:11:28;7.28;;;2.30;;
15913;SDS011;8055;51.930;8.840;2022-09-16T15:13:57;9.02;;;3.20;;
15913;SDS011;8055;51.930;8.840;2022-09-16T15:16:23;7.28;;;1.75;;
15913;SDS011;8055;51.930;8.840;2022-09-16T15:18:58;9.18;;;1.42;;
15913;SDS011;8055;51.930;8.840;2022-09-16T15:21:34;6.53;;;1.35;;
15913;SDS011;8055;51.930;8.840;2022-09-16T15:24:04;5.60;;;1.40;;
15913;SDS011;8055;51.930;8.840;2022-09-16T15:26:42;6.30;;;1.10;;
15913;SDS011;8055;51.930;8.840;2022-09-16T15:31:41;3.65;;;0.73;;
15913;SDS011;8055;51.930;8.840;2022-09-16T15:36:43;4.40;;;0.93;;
15913;SDS011;8055;51.930;8.840;2022-09-16T15:42:07;4.07;;;1.42;;
15913;SDS011;8055;51.930;8.840;2022-09-16T15:44:36;4.93;;;0.93;;
15913;SDS011;8055;51.930;8.840;2022-09-16T15:47:13;6.40;;;1.05;;
15913;SDS011;8055;51.930;8.840;2022-09-16T15:49:42;4.22;;;1.02;;
15913;SDS011;8055;51.930;8.840;2022-09-16T15:52:09;4.22;;;1.15;;
15913;SDS011;8055;51.930;8.840;2022-09-16T15:57:22;4.95;;;1.30;;
15913;SDS011;8055;51.930;8.840;2022-09-16T16:00:05;4.10;;;1.55;;
15913;SDS011;8055;51.930;8.840;2022-09-16T16:05:14;5.28;;;1.38;;
15913;SDS011;8055;51.930;8.840;2022-09-16T16:07:49;5.53;;;0.98;;
15913;SDS011;8055;51.930;8.840;2022-09-16T16:12:46;8.02;;;1.20;;
15913;SDS011;8055;51.930;8.840;2022-09-16T16:15:17;4.22;;;0.90;;
15913;SDS011;8055;51.930;8.840;2022-09-16T16:17:49;2.42;;;0.80;;
15913;SDS011;8055;51.930;8.840;2022-09-16T16:20:16;4.10;;;0.90;;
15913;SDS011;8055;51.930;8.840;2022-09-16T16:22:42;3.47;;;0.95;;
15913;SDS011;8055;51.930;8.840;2022-09-16T16:25:10;5.78;;;1.30;;
15913;SDS011;8055;51.930;8.840;2022-09-16T16:27:37;7.10;;;1.25;;
15913;SDS011;8055;51.930;8.840;2022-09-16T16:30:03;6.07;;;1.13;;
15913;SDS011;8055;51.930;8.840;2022-09-16T16:32:29;8.55;;;1.63;;
15913;SDS011;8055;51.930;8.840;2022-09-16T16:34:56;3.70;;;1.00;;
15913;SDS011;8055;51.930;8.840;2022-09-16T16:37:23;3.92;;;0.93;;
15913;SDS011;8055;51.930;8.840;2022-09-16T16:39:49;3.58;;;1.08;;
15913;SDS011;8055;51.930;8.840;2022-09-16T16:42:14;4.05;;;0.90;;
15913;SDS011;8055;51.930;8.840;2022-09-16T16:44:40;4.80;;;1.05;;
15913;SDS011;8055;51.930;8.840;2022-09-16T16:47:06;3.67;;;1.10;;
15913;SDS011;8055;51.930;8.840;2022-09-16T16:49:32;4.25;;;1.00;;
15913;SDS011;8055;51.930;8.840;2022-09-16T16:51:58;6.70;;;1.65;;
15913;SDS011;8055;51.930;8.840;2022-09-16T16:54:24;7.18;;;1.10;;
15913;SDS011;8055;51.930;8.840;2022-09-16T16:56:50;6.32;;;1.45;;
15913;SDS011;8055;51.930;8.840;2022-09-16T16:59:17;5.15;;;1.50;;
15913;SDS011;8055;51.930;8.840;2022-09-16T17:01:43;5.32;;;1.10;;
15913;SDS011;8055;51.930;8.840;2022-09-16T17:04:10;5.57;;;1.60;;
15913;SDS011;8055;51.930;8.840;2022-09-16T17:06:36;5.93;;;1.58;;
15913;SDS011;8055;51.930;8.840;2022-09-16T17:09:06;5.10;;;1.42;;
15913;SDS011;8055;51.930;8.840;2022-09-16T17:11:33;8.32;;;1.73;;
15913;SDS011;8055;51.930;8.840;2022-09-16T17:14:05;6.60;;;1.42;;
15913;SDS011;8055;51.930;8.840;2022-09-16T17:16:31;6.20;;;1.58;;
15913;SDS011;8055;51.930;8.840;2022-09-16T17:18:58;5.95;;;1.40;;
15913;SDS011;8055;51.930;8.840;2022-09-16T17:21:29;7.18;;;1.92;;
15913;SDS011;8055;51.930;8.840;2022-09-16T17:23:56;12.10;;;3.13;;
15913;SDS011;8055;51.930;8.840;2022-09-16T17:26:22;8.15;;;1.95;;
15913;SDS011;8055;51.930;8.840;2022-09-16T17:28:49;14.43;;;4.35;;
15913;SDS011;8055;51.930;8.840;2022-09-16T17:31:17;12.30;;;4.05;;
15913;SDS011;8055;51.930;8.840;2022-09-16T17:33:54;20.23;;;6.38;;
15913;SDS011;8055;51.930;8.840;2022-09-16T17:36:20;17.20;;;4.90;;
15913;SDS011;8055;51.930;8.840;2022-09-16T17:38:53;8.73;;;2.65;;
15913;SDS011;8055;51.930;8.840;2022-09-16T17:41:21;6.25;;;1.90;;
15913;SDS011;8055;51.930;8.840;2022-09-16T17:43:47;10.00;;;2.70;;
15913;SDS011;8055;51.930;8.840;2022-09-16T17:46:16;9.70;;;2.63;;
15913;SDS011;8055;51.930;8.840;2022-09-16T17:48:43;8.75;;;2.05;;
15913;SDS011;8055;51.930;8.840;2022-09-16T17:51:08;9.90;;;2.00;;
15913;SDS011;8055;51.930;8.840;2022-09-16T17:53:35;6.03;;;1.20;;
15913;SDS011;8055;51.930;8.840;2022-09-16T17:56:07;8.25;;;2.00;;
15913;SDS011;8055;51.930;8.840;2022-09-16T17:58:35;5.28;;;1.20;;
15913;SDS011;8055;51.930;8.840;2022-09-16T18:01:05;6.65;;;1.77;;
15913;SDS011;8055;51.930;8.840;2022-09-16T18:03:32;8.18;;;2.28;;
15913;SDS011;8055;51.930;8.840;2022-09-16T18:06:02;6.55;;;1.70;;
15913;SDS011;8055;51.930;8.840;2022-09-16T18:08:33;10.15;;;1.80;;
15913;SDS011;8055;51.930;8.840;2022-09-16T18:10:58;5.15;;;1.85;;
15913;SDS011;8055;51.930;8.840;2022-09-16T18:13:24;13.73;;;3.88;;
15913;SDS011;8055;51.930;8.840;2022-09-16T18:15:49;6.97;;;1.98;;
15913;SDS011;8055;51.930;8.840;2022-09-16T18:18:15;5.38;;;1.65;;
15913;SDS011;8055;51.930;8.840;2022-09-16T18:20:42;7.55;;;2.95;;
15913;SDS011;8055;51.930;8.840;2022-09-16T18:23:08;10.02;;;3.28;;
15913;SDS011;8055;51.930;8.840;2022-09-16T18:25:36;7.60;;;2.20;;
15913;SDS011;8055;51.930;8.840;2022-09-16T18:28:02;13.88;;;3.53;;
15913;SDS011;8055;51.930;8.840;2022-09-16T18:30:27;12.02;;;3.70;;
15913;SDS011;8055;51.930;8.840;2022-09-16T18:32:53;15.23;;;3.35;;
15913;SDS011;8055;51.930;8.840;2022-09-16T18:35:19;14.38;;;4.70;;
15913;SDS011;8055;51.930;8.840;2022-09-16T18:37:44;13.38;;;3.97;;
15913;SDS011;8055;51.930;8.840;2022-09-16T18:40:10;12.38;;;3.25;;
15913;SDS011;8055;51.930;8.840;2022-09-16T18:42:35;9.27;;;2.10;;
15913;SDS011;8055;51.930;8.840;2022-09-16T18:45:00;15.65;;;8.27;;
15913;SDS011;8055;51.930;8.840;2022-09-16T18:47:26;9.20;;;4.20;;
15913;SDS011;8055;51.930;8.840;2022-09-16T18:49:51;12.23;;;2.97;;